sensor_id;sensor_type;location;lat;lon;timestamp;pressure;altitude;pressure_sealevel;temperature;humidity
2339;BME280;1180;51.438;6.978;2023-09-07T00:00:37;100682.16;;;24.58;68.86
2339;BME280;1180;51.438;6.978;2023-09-07T00:03:03;100672.69;;;24.48;68.94
2339;BME280;1180;51.438;6.978;2023-09-07T00:05:29;100676.81;;;24.43;68.78
2339;BME280;1180;51.438;6.978;2023-09-07T00:07:55;100677.47;;;24.45;68.91
2339;BME280;1180;51.438;6.978;2023-09-07T00:10:21;100676.47;;;24.46;68.90
2339;BME280;1180;51.438;6.978;2023-09-07T00:12:46;100675.31;;;24.48;68.69
2339;BME280;1180;51.438;6.978;2023-09-07T00:15:12;100671.41;;;24.44;68.85
2339;BME280;1180;51.438;6.978;2023-09-07T00:17:37;100668.59;;;24.46;68.92
2339;BME280;1180;51.438;6.978;2023-09-07T00:20:03;100666.50;;;24.41;68.73
2339;BME280;1180;51.438;6.978;2023-09-07T00:22:41;100669.47;;;24.38;68.88
2339;BME280;1180;51.438;6.978;2023-09-07T00:25:07;100670.47;;;24.37;68.59
2339;BME280;1180;51.438;6.978;2023-09-07T00:27:35;100669.00;;;24.34;68.39
2339;BME280;1180;51.438;6.978;2023-09-07T00:30:04;100673.25;;;24.35;68.63
2339;BME280;1180;51.438;6.978;2023-09-07T00:32:31;100669.81;;;24.35;67.82
2339;BME280;1180;51.438;6.978;2023-09-07T00:34:56;100669.00;;;24.34;67.75
2339;BME280;1180;51.438;6.978;2023-09-07T00:37:22;100673.25;;;24.35;67.47
2339;BME280;1180;51.438;6.978;2023-09-07T00:39:47;100673.94;;;24.29;67.61
2339;BME280;1180;51.438;6.978;2023-09-07T00:42:13;100675.09;;;24.27;67.28
2339;BME280;1180;51.438;6.978;2023-09-07T00:44:38;100663.50;;;24.21;67.45
2339;BME280;1180;51.438;6.978;2023-09-07T00:47:03;100665.97;;;24.14;67.54
2339;BME280;1180;51.438;6.978;2023-09-07T00:49:30;100667.81;;;24.05;67.03
2339;BME280;1180;51.438;6.978;2023-09-07T00:51:55;100666.66;;;24.08;67.40
2339;BME280;1180;51.438;6.978;2023-09-07T00:54:21;100658.91;;;24.15;66.91
2339;BME280;1180;51.438;6.978;2023-09-07T00:56:46;100661.25;;;24.09;67.39
2339;BME280;1180;51.438;6.978;2023-09-07T00:59:13;100662.91;;;24.02;67.35
2339;BME280;1180;51.438;6.978;2023-09-07T01:01:38;100660.59;;;24.07;67.28
2339;BME280;1180;51.438;6.978;2023-09-07T01:04:03;100654.53;;;24.07;67.08
2339;BME280;1180;51.438;6.978;2023-09-07T01:06:32;100660.28;;;24.02;67.55
2339;BME280;1180;51.438;6.978;2023-09-07T01:09:06;100654.53;;;23.99;67.51
2339;BME280;1180;51.438;6.978;2023-09-07T01:11:36;100648.63;;;23.97;67.34
2339;BME280;1180;51.438;6.978;2023-09-07T01:14:02;100652.13;;;23.89;67.69
2339;BME280;1180;51.438;6.978;2023-09-07T01:16:29;100644.72;;;23.92;67.22
2339;BME280;1180;51.438;6.978;2023-09-07T01:18:55;100641.66;;;23.80;67.49
2339;BME280;1180;51.438;6.978;2023-09-07T01:21:22;100651.03;;;23.75;67.61
2339;BME280;1180;51.438;6.978;2023-09-07T01:23:48;100650.53;;;23.71;67.86
2339;BME280;1180;51.438;6.978;2023-09-07T01:26:14;100643.00;;;23.68;67.60
2339;BME280;1180;51.438;6.978;2023-09-07T01:28:39;100646.13;;;23.72;67.24
2339;BME280;1180;51.438;6.978;2023-09-07T01:31:05;100641.03;;;23.70;67.29
2339;BME280;1180;51.438;6.978;2023-09-07T01:33:34;100647.56;;;23.74;67.15
2339;BME280;1180;51.438;6.978;2023-09-07T01:36:00;100647.91;;;23.71;67.19
2339;BME280;1180;51.438;6.978;2023-09-07T01:38:25;100644.97;;;23.66;67.28
2339;BME280;1180;51.438;6.978;2023-09-07T01:40:50;100642.84;;;23.61;67.62
2339;BME280;1180;51.438;6.978;2023-09-07T01:43:16;100645.84;;;23.50;68.14
2339;BME280;1180;51.438;6.978;2023-09-07T01:45:41;100638.13;;;23.48;68.07
2339;BME280;1180;51.438;6.978;2023-09-07T01:48:12;100639.94;;;23.48;68.20
2339;BME280;1180;51.438;6.978;2023-09-07T01:50:37;100641.41;;;23.42;68.17
2339;BME280;1180;51.438;6.978;2023-09-07T01:53:03;100641.94;;;23.38;69.04
2339;BME280;1180;51.438;6.978;2023-09-07T01:55:30;100638.16;;;23.32;69.27
2339;BME280;1180;51.438;6.978;2023-09-07T01:57:55;100634.88;;;23.21;69.88
2339;BME280;1180;51.438;6.978;2023-09-07T02:00:21;100633.25;;;23.20;70.02
2339;BME280;1180;51.438;6.978;2023-09-07T02:02:46;100639.13;;;23.22;69.95
2339;BME280;1180;51.438;6.978;2023-09-07T02:05:11;100639.13;;;23.06;70.46
2339;BME280;1180;51.438;6.978;2023-09-07T02:07:37;100642.72;;;23.05;70.61
2339;BME280;1180;51.438;6.978;2023-09-07T02:10:03;100637.81;;;23.02;70.43
2339;BME280;1180;51.438;6.978;2023-09-07T02:12:29;100634.53;;;23.08;70.22
2339;BME280;1180;51.438;6.978;2023-09-07T02:14:55;100637.50;;;23.05;70.11
2339;BME280;1180;51.438;6.978;2023-09-07T02:17:20;100627.84;;;23.05;70.14
2339;BME280;1180;51.438;6.978;2023-09-07T02:19:46;100633.56;;;23.01;70.00
2339;BME280;1180;51.438;6.978;2023-09-07T02:22:11;100630.31;;;22.99;70.13
2339;BME280;1180;51.438;6.978;2023-09-07T02:24:37;100631.59;;;23.03;69.55
2339;BME280;1180;51.438;6.978;2023-09-07T02:27:02;100618.66;;;23.01;69.51
2339;BME280;1180;51.438;6.978;2023-09-07T02:29:28;100617.88;;;23.01;69.49
2339;BME280;1180;51.438;6.978;2023-09-07T02:31:53;100619.00;;;22.98;69.43
2339;BME280;1180;51.438;6.978;2023-09-07T02:34:19;100624.22;;;22.98;69.14
2339;BME280;1180;51.438;6.978;2023-09-07T02:36:44;100618.53;;;22.94;69.91
2339;BME280;1180;51.438;6.978;2023-09-07T02:39:10;100624.72;;;22.85;70.02
2339;BME280;1180;51.438;6.978;2023-09-07T02:41:36;100625.88;;;22.83;70.30
2339;BME280;1180;51.438;6.978;2023-09-07T02:44:02;100632.56;;;22.85;70.45
2339;BME280;1180;51.438;6.978;2023-09-07T02:46:28;100625.38;;;22.79;70.60
2339;BME280;1180;51.438;6.978;2023-09-07T02:48:53;100627.00;;;22.80;70.65
2339;BME280;1180;51.438;6.978;2023-09-07T02:51:22;100624.72;;;22.77;70.80
2339;BME280;1180;51.438;6.978;2023-09-07T02:53:47;100628.63;;;22.81;70.90
2339;BME280;1180;51.438;6.978;2023-09-07T02:56:13;100625.22;;;22.72;71.01
2339;BME280;1180;51.438;6.978;2023-09-07T02:58:39;100628.31;;;22.59;71.28
2339;BME280;1180;51.438;6.978;2023-09-07T03:01:07;100632.56;;;22.60;71.25
2339;BME280;1180;51.438;6.978;2023-09-07T03:03:37;100628.78;;;22.63;71.54
2339;BME280;1180;51.438;6.978;2023-09-07T03:06:12;100627.66;;;22.57;71.46
2339;BME280;1180;51.438;6.978;2023-09-07T03:08:39;100617.84;;;22.59;71.50
2339;BME280;1180;51.438;6.978;2023-09-07T03:11:05;100625.38;;;22.62;71.41
2339;BME280;1180;51.438;6.978;2023-09-07T03:13:31;100615.38;;;22.66;70.95
2339;BME280;1180;51.438;6.978;2023-09-07T03:15:57;100614.25;;;22.60;70.86
2339;BME280;1180;51.438;6.978;2023-09-07T03:18:22;100615.03;;;22.53;71.34
2339;BME280;1180;51.438;6.978;2023-09-07T03:20:49;100625.03;;;22.57;71.08
2339;BME280;1180;51.438;6.978;2023-09-07T03:23:14;100617.78;;;22.43;71.32
2339;BME280;1180;51.438;6.978;2023-09-07T03:25:40;100621.22;;;22.43;71.49
2339;BME280;1180;51.438;6.978;2023-09-07T03:28:06;100611.56;;;22.44;71.33
2339;BME280;1180;51.438;6.978;2023-09-07T03:30:31;100619.22;;;22.37;71.58
2339;BME280;1180;51.438;6.978;2023-09-07T03:32:57;100615.66;;;22.38;72.18
2339;BME280;1180;51.438;6.978;2023-09-07T03:35:23;100614.31;;;22.34;71.62
2339;BME280;1180;51.438;6.978;2023-09-07T03:37:48;100613.00;;;22.30;71.52
2339;BME280;1180;51.438;6.978;2023-09-07T03:40:13;100620.16;;;22.19;71.68
2339;BME280;1180;51.438;6.978;2023-09-07T03:42:39;100622.00;;;22.27;71.60
2339;BME280;1180;51.438;6.978;2023-09-07T03:45:05;100623.31;;;22.31;71.19
2339;BME280;1180;51.438;6.978;2023-09-07T03:47:30;100622.66;;;22.29;70.94
2339;BME280;1180;51.438;6.978;2023-09-07T03:49:56;100632.78;;;22.32;71.27
2339;BME280;1180;51.438;6.978;2023-09-07T03:52:22;100627.75;;;22.39;70.96
2339;BME280;1180;51.438;6.978;2023-09-07T03:54:56;100625.59;;;22.26;71.43
2339;BME280;1180;51.438;6.978;2023-09-07T03:57:22;100631.63;;;22.27;71.24
2339;BME280;1180;51.438;6.978;2023-09-07T03:59:48;100634.75;;;22.30;71.22
2339;BME280;1180;51.438;6.978;2023-09-07T04:02:13;100626.72;;;22.24;71.50
2339;BME280;1180;51.438;6.978;2023-09-07T04:04:40;100628.19;;;22.26;70.89
2339;BME280;1180;51.438;6.978;2023-09-07T04:07:06;100635.84;;;22.19;70.78
2339;BME280;1180;51.438;6.978;2023-09-07T04:09:31;100627.34;;;22.17;71.66
2339;BME280;1180;51.438;6.978;2023-09-07T04:11:57;100631.75;;;22.17;71.82
2339;BME280;1180;51.438;6.978;2023-09-07T04:14:22;100638.31;;;22.21;71.34
2339;BME280;1180;51.438;6.978;2023-09-07T04:16:47;100633.88;;;22.13;71.93
2339;BME280;1180;51.438;6.978;2023-09-07T04:19:12;100635.34;;;22.16;71.86
2339;BME280;1180;51.438;6.978;2023-09-07T04:21:38;100629.94;;;22.09;71.82
2339;BME280;1180;51.438;6.978;2023-09-07T04:24:04;100636.31;;;22.15;71.60
2339;BME280;1180;51.438;6.978;2023-09-07T04:26:30;100636.16;;;22.08;71.97
2339;BME280;1180;51.438;6.978;2023-09-07T04:28:55;100634.00;;;22.03;72.49
2339;BME280;1180;51.438;6.978;2023-09-07T04:31:20;100638.03;;;21.98;72.64
2339;BME280;1180;51.438;6.978;2023-09-07T04:33:46;100635.91;;;21.93;72.94
2339;BME280;1180;51.438;6.978;2023-09-07T04:36:13;100637.34;;;21.87;73.08
2339;BME280;1180;51.438;6.978;2023-09-07T04:38:40;100643.09;;;21.91;73.56
2339;BME280;1180;51.438;6.978;2023-09-07T04:41:10;100638.66;;;21.91;73.11
2339;BME280;1180;51.438;6.978;2023-09-07T04:43:40;100639.56;;;22.08;73.10
2339;BME280;1180;51.438;6.978;2023-09-07T04:46:06;100636.47;;;22.13;72.51
2339;BME280;1180;51.438;6.978;2023-09-07T04:48:32;100632.41;;;22.19;71.94
2339;BME280;1180;51.438;6.978;2023-09-07T04:51:07;100635.00;;;22.19;71.21
2339;BME280;1180;51.438;6.978;2023-09-07T04:53:35;100637.28;;;22.14;72.06
2339;BME280;1180;51.438;6.978;2023-09-07T04:56:01;100636.47;;;22.05;71.81
2339;BME280;1180;51.438;6.978;2023-09-07T04:58:27;100637.13;;;22.07;71.83
2339;BME280;1180;51.438;6.978;2023-09-07T05:00:53;100645.44;;;22.11;71.82
2339;BME280;1180;51.438;6.978;2023-09-07T05:03:18;100645.13;;;22.14;71.54
2339;BME280;1180;51.438;6.978;2023-09-07T05:05:44;100645.25;;;22.04;72.43
2339;BME280;1180;51.438;6.978;2023-09-07T05:08:09;100636.09;;;22.00;72.17
2339;BME280;1180;51.438;6.978;2023-09-07T05:10:36;100646.41;;;22.01;72.19
2339;BME280;1180;51.438;6.978;2023-09-07T05:13:02;100648.50;;;21.98;73.05
2339;BME280;1180;51.438;6.978;2023-09-07T05:15:27;100645.22;;;21.96;72.86
2339;BME280;1180;51.438;6.978;2023-09-07T05:17:53;100637.03;;;21.90;73.04
2339;BME280;1180;51.438;6.978;2023-09-07T05:20:18;100639.50;;;21.92;72.83
2339;BME280;1180;51.438;6.978;2023-09-07T05:22:44;100647.16;;;21.93;72.75
2339;BME280;1180;51.438;6.978;2023-09-07T05:25:09;100644.41;;;21.95;72.50
2339;BME280;1180;51.438;6.978;2023-09-07T05:27:35;100648.63;;;21.88;72.97
2339;BME280;1180;51.438;6.978;2023-09-07T05:30:01;100650.75;;;21.92;72.93
2339;BME280;1180;51.438;6.978;2023-09-07T05:32:27;100652.72;;;21.90;72.96
2339;BME280;1180;51.438;6.978;2023-09-07T05:34:52;100652.56;;;21.92;73.03
2339;BME280;1180;51.438;6.978;2023-09-07T05:37:18;100651.25;;;21.88;73.02
2339;BME280;1180;51.438;6.978;2023-09-07T05:39:43;100651.25;;;21.88;72.66
2339;BME280;1180;51.438;6.978;2023-09-07T05:42:08;100653.06;;;21.96;72.70
2339;BME280;1180;51.438;6.978;2023-09-07T05:44:33;100662.22;;;22.00;72.55
2339;BME280;1180;51.438;6.978;2023-09-07T05:46:59;100663.19;;;21.99;71.98
2339;BME280;1180;51.438;6.978;2023-09-07T05:49:24;100664.03;;;21.99;72.11
2339;BME280;1180;51.438;6.978;2023-09-07T05:51:50;100660.94;;;22.04;71.84
2339;BME280;1180;51.438;6.978;2023-09-07T05:54:15;100663.19;;;21.99;71.96
2339;BME280;1180;51.438;6.978;2023-09-07T05:56:41;100664.47;;;21.95;72.17
2339;BME280;1180;51.438;6.978;2023-09-07T05:59:06;100661.41;;;21.99;72.17
2339;BME280;1180;51.438;6.978;2023-09-07T06:01:31;100660.56;;;21.99;72.31
2339;BME280;1180;51.438;6.978;2023-09-07T06:03:58;100660.91;;;21.96;72.53
2339;BME280;1180;51.438;6.978;2023-09-07T06:06:23;100661.41;;;21.99;72.77
2339;BME280;1180;51.438;6.978;2023-09-07T06:08:49;100667.66;;;22.06;72.02
2339;BME280;1180;51.438;6.978;2023-09-07T06:11:14;100665.03;;;22.06;71.52
2339;BME280;1180;51.438;6.978;2023-09-07T06:13:39;100662.63;;;22.13;71.93
2339;BME280;1180;51.438;6.978;2023-09-07T06:16:05;100668.03;;;22.20;70.99
2339;BME280;1180;51.438;6.978;2023-09-07T06:18:30;100669.81;;;22.19;71.04
2339;BME280;1180;51.438;6.978;2023-09-07T06:20:56;100666.09;;;22.22;71.15
2339;BME280;1180;51.438;6.978;2023-09-07T06:23:21;100673.63;;;22.25;71.30
2339;BME280;1180;51.438;6.978;2023-09-07T06:25:47;100670.38;;;22.31;71.26
2339;BME280;1180;51.438;6.978;2023-09-07T06:28:12;100680.69;;;22.41;70.92
2339;BME280;1180;51.438;6.978;2023-09-07T06:30:38;100678.56;;;22.36;69.66
2339;BME280;1180;51.438;6.978;2023-09-07T06:33:03;100685.09;;;22.41;69.96
2339;BME280;1180;51.438;6.978;2023-09-07T06:35:29;100675.09;;;22.36;69.52
2339;BME280;1180;51.438;6.978;2023-09-07T06:37:54;100683.00;;;22.44;69.80
2339;BME280;1180;51.438;6.978;2023-09-07T06:40:21;100686.97;;;22.48;69.85
2339;BME280;1180;51.438;6.978;2023-09-07T06:42:46;100689.78;;;22.55;69.44
2339;BME280;1180;51.438;6.978;2023-09-07T06:45:11;100691.09;;;22.59;68.48
2339;BME280;1180;51.438;6.978;2023-09-07T06:47:37;100702.84;;;22.55;68.24
2339;BME280;1180;51.438;6.978;2023-09-07T06:50:04;100697.31;;;22.67;68.66
2339;BME280;1180;51.438;6.978;2023-09-07T06:52:29;100701.75;;;22.74;68.56
2339;BME280;1180;51.438;6.978;2023-09-07T06:54:55;100698.75;;;22.69;69.03
2339;BME280;1180;51.438;6.978;2023-09-07T06:57:20;100693.72;;;22.76;69.18
2339;BME280;1180;51.438;6.978;2023-09-07T06:59:46;100687.50;;;22.85;69.32
2339;BME280;1180;51.438;6.978;2023-09-07T07:02:11;100692.13;;;22.91;69.11
2339;BME280;1180;51.438;6.978;2023-09-07T07:04:37;100694.09;;;22.98;68.62
2339;BME280;1180;51.438;6.978;2023-09-07T07:07:02;100696.22;;;23.02;67.96
2339;BME280;1180;51.438;6.978;2023-09-07T07:09:30;100694.41;;;23.03;67.88
2339;BME280;1180;51.438;6.978;2023-09-07T07:11:55;100697.19;;;23.01;67.99
2339;BME280;1180;51.438;6.978;2023-09-07T07:14:21;100702.75;;;22.98;67.94
2339;BME280;1180;51.438;6.978;2023-09-07T07:16:46;100702.28;;;23.03;68.37
2339;BME280;1180;51.438;6.978;2023-09-07T07:19:11;100700.81;;;23.17;67.61
2339;BME280;1180;51.438;6.978;2023-09-07T07:21:37;100698.69;;;23.20;67.45
2339;BME280;1180;51.438;6.978;2023-09-07T07:24:03;100703.97;;;23.29;66.77
2339;BME280;1180;51.438;6.978;2023-09-07T07:26:29;100704.28;;;23.42;65.80
2339;BME280;1180;51.438;6.978;2023-09-07T07:28:55;100707.72;;;23.51;66.14
2339;BME280;1180;51.438;6.978;2023-09-07T07:31:20;100696.22;;;23.60;66.08
2339;BME280;1180;51.438;6.978;2023-09-07T07:33:47;100690.16;;;23.68;66.41
2339;BME280;1180;51.438;6.978;2023-09-07T07:36:13;100688.16;;;23.78;65.51
2339;BME280;1180;51.438;6.978;2023-09-07T07:38:39;100688.34;;;23.77;66.72
2339;BME280;1180;51.438;6.978;2023-09-07T07:41:04;100693.41;;;23.87;65.88
2339;BME280;1180;51.438;6.978;2023-09-07T07:43:30;100691.09;;;23.92;66.19
2339;BME280;1180;51.438;6.978;2023-09-07T07:45:55;100697.97;;;24.01;65.93
2339;BME280;1180;51.438;6.978;2023-09-07T07:48:21;100693.34;;;24.12;65.95
2339;BME280;1180;51.438;6.978;2023-09-07T07:50:46;100694.09;;;24.29;65.11
2339;BME280;1180;51.438;6.978;2023-09-07T07:53:12;100686.22;;;24.37;64.47
2339;BME280;1180;51.438;6.978;2023-09-07T07:55:38;100690.78;;;24.35;63.43
2339;BME280;1180;51.438;6.978;2023-09-07T07:58:05;100684.63;;;24.51;63.49
2339;BME280;1180;51.438;6.978;2023-09-07T08:00:37;100691.78;;;24.65;62.87
2339;BME280;1180;51.438;6.978;2023-09-07T08:03:03;100685.00;;;24.79;63.06
2339;BME280;1180;51.438;6.978;2023-09-07T08:05:31;100685.41;;;24.91;62.97
2339;BME280;1180;51.438;6.978;2023-09-07T08:07:57;100684.25;;;24.94;63.88
2339;BME280;1180;51.438;6.978;2023-09-07T08:10:23;100691.59;;;24.99;62.45
2339;BME280;1180;51.438;6.978;2023-09-07T08:12:53;100693.88;;;25.02;62.63
2339;BME280;1180;51.438;6.978;2023-09-07T08:15:18;100691.16;;;25.10;62.95
2339;BME280;1180;51.438;6.978;2023-09-07T08:17:46;100689.19;;;25.12;61.53
2339;BME280;1180;51.438;6.978;2023-09-07T08:20:12;100691.22;;;25.25;61.80
2339;BME280;1180;51.438;6.978;2023-09-07T08:22:38;100687.72;;;25.33;60.99
2339;BME280;1180;51.438;6.978;2023-09-07T08:25:06;100687.81;;;25.40;60.21
2339;BME280;1180;51.438;6.978;2023-09-07T08:27:32;100687.00;;;25.39;60.52
2339;BME280;1180;51.438;6.978;2023-09-07T08:29:57;100685.88;;;25.33;59.90
2339;BME280;1180;51.438;6.978;2023-09-07T08:32:24;100685.63;;;25.43;59.73
2339;BME280;1180;51.438;6.978;2023-09-07T08:34:50;100692.66;;;25.51;60.47
2339;BME280;1180;51.438;6.978;2023-09-07T08:37:15;100682.91;;;25.75;60.10
2339;BME280;1180;51.438;6.978;2023-09-07T08:39:40;100684.91;;;25.73;60.62
2339;BME280;1180;51.438;6.978;2023-09-07T08:42:06;100678.72;;;25.80;60.75
2339;BME280;1180;51.438;6.978;2023-09-07T08:44:33;100679.09;;;25.92;61.01
2339;BME280;1180;51.438;6.978;2023-09-07T08:46:59;100675.81;;;26.05;60.44
2339;BME280;1180;51.438;6.978;2023-09-07T08:49:25;100685.78;;;26.10;59.96
2339;BME280;1180;51.438;6.978;2023-09-07T08:51:53;100679.53;;;25.96;58.08
2339;BME280;1180;51.438;6.978;2023-09-07T08:54:19;100683.81;;;25.97;57.78
2339;BME280;1180;51.438;6.978;2023-09-07T08:56:45;100667.28;;;26.03;57.28
2339;BME280;1180;51.438;6.978;2023-09-07T08:59:10;100675.19;;;26.03;57.81
2339;BME280;1180;51.438;6.978;2023-09-07T09:01:36;100675.19;;;26.03;58.17
2339;BME280;1180;51.438;6.978;2023-09-07T09:04:02;100679.00;;;26.16;57.78
2339;BME280;1180;51.438;6.978;2023-09-07T09:06:28;100675.03;;;26.20;56.89
2339;BME280;1180;51.438;6.978;2023-09-07T09:08:55;100674.34;;;26.18;57.31
2339;BME280;1180;51.438;6.978;2023-09-07T09:11:22;100679.53;;;26.26;57.64
2339;BME280;1180;51.438;6.978;2023-09-07T09:13:50;100680.53;;;26.25;57.71
2339;BME280;1180;51.438;6.978;2023-09-07T09:16:15;100679.75;;;26.46;58.35
2339;BME280;1180;51.438;6.978;2023-09-07T09:18:55;100685.44;;;26.50;57.17
2339;BME280;1180;51.438;6.978;2023-09-07T09:21:24;100680.09;;;26.58;58.54
2339;BME280;1180;51.438;6.978;2023-09-07T09:23:52;100676.47;;;26.59;56.53
2339;BME280;1180;51.438;6.978;2023-09-07T09:26:18;100675.06;;;26.63;55.92
2339;BME280;1180;51.438;6.978;2023-09-07T09:28:44;100677.59;;;26.72;56.39
2339;BME280;1180;51.438;6.978;2023-09-07T09:31:10;100674.78;;;26.73;56.38
2339;BME280;1180;51.438;6.978;2023-09-07T09:33:39;100673.91;;;26.88;55.11
2339;BME280;1180;51.438;6.978;2023-09-07T09:36:06;100672.03;;;27.03;55.31
2339;BME280;1180;51.438;6.978;2023-09-07T09:38:32;100662.91;;;27.06;54.80
2339;BME280;1180;51.438;6.978;2023-09-07T09:40:58;100669.13;;;27.20;55.01
2339;BME280;1180;51.438;6.978;2023-09-07T09:43:25;100664.03;;;27.18;53.91
2339;BME280;1180;51.438;6.978;2023-09-07T09:45:51;100665.63;;;27.13;55.57
2339;BME280;1180;51.438;6.978;2023-09-07T09:48:19;100663.06;;;27.26;55.26
2339;BME280;1180;51.438;6.978;2023-09-07T09:50:46;100665.03;;;27.46;55.63
2339;BME280;1180;51.438;6.978;2023-09-07T09:53:17;100656.66;;;27.64;54.35
2339;BME280;1180;51.438;6.978;2023-09-07T09:55:48;100660.75;;;27.73;53.52
2339;BME280;1180;51.438;6.978;2023-09-07T09:58:15;100656.31;;;27.74;53.55
2339;BME280;1180;51.438;6.978;2023-09-07T10:00:45;100654.06;;;27.77;54.47
2339;BME280;1180;51.438;6.978;2023-09-07T10:05:41;100650.44;;;27.78;53.85
2339;BME280;1180;51.438;6.978;2023-09-07T10:08:12;100644.94;;;27.73;54.68
2339;BME280;1180;51.438;6.978;2023-09-07T10:10:40;100653.06;;;27.78;54.20
2339;BME280;1180;51.438;6.978;2023-09-07T10:13:06;100645.06;;;28.00;54.48
2339;BME280;1180;51.438;6.978;2023-09-07T10:15:32;100642.22;;;28.02;53.75
2339;BME280;1180;51.438;6.978;2023-09-07T10:18:11;100640.69;;;28.28;54.38
2339;BME280;1180;51.438;6.978;2023-09-07T10:20:56;100644.56;;;28.32;53.09
2339;BME280;1180;51.438;6.978;2023-09-07T10:23:38;100637.91;;;28.36;52.96
2339;BME280;1180;51.438;6.978;2023-09-07T10:26:04;100624.28;;;28.46;53.99
2339;BME280;1180;51.438;6.978;2023-09-07T10:28:30;100637.25;;;28.34;53.20
2339;BME280;1180;51.438;6.978;2023-09-07T10:31:03;100634.88;;;28.52;52.39
2339;BME280;1180;51.438;6.978;2023-09-07T10:33:33;100629.81;;;28.51;52.97
2339;BME280;1180;51.438;6.978;2023-09-07T10:35:59;100631.03;;;28.68;52.10
2339;BME280;1180;51.438;6.978;2023-09-07T10:38:25;100628.22;;;28.83;51.96
2339;BME280;1180;51.438;6.978;2023-09-07T10:40:58;100629.66;;;28.86;51.44
2339;BME280;1180;51.438;6.978;2023-09-07T10:43:27;100615.63;;;28.92;50.44
2339;BME280;1180;51.438;6.978;2023-09-07T10:45:57;100622.75;;;28.85;52.24
2339;BME280;1180;51.438;6.978;2023-09-07T10:48:28;100619.69;;;28.88;52.59
2339;BME280;1180;51.438;6.978;2023-09-07T10:50:54;100616.44;;;29.00;50.83
2339;BME280;1180;51.438;6.978;2023-09-07T10:53:32;100618.44;;;29.11;49.86
2339;BME280;1180;51.438;6.978;2023-09-07T10:56:04;100613.16;;;29.11;49.57
2339;BME280;1180;51.438;6.978;2023-09-07T10:58:32;100614.97;;;29.24;49.55
2339;BME280;1180;51.438;6.978;2023-09-07T11:00:58;100601.31;;;29.34;48.97
2339;BME280;1180;51.438;6.978;2023-09-07T11:03:25;100609.88;;;29.43;48.70
2339;BME280;1180;51.438;6.978;2023-09-07T11:06:01;100604.78;;;29.41;48.28
2339;BME280;1180;51.438;6.978;2023-09-07T11:08:31;100608.03;;;29.36;47.82
2339;BME280;1180;51.438;6.978;2023-09-07T11:10:58;100609.06;;;29.42;48.51
2339;BME280;1180;51.438;6.978;2023-09-07T11:13:24;100610.88;;;29.28;47.76
2339;BME280;1180;51.438;6.978;2023-09-07T11:15:53;100601.13;;;29.35;47.36
2339;BME280;1180;51.438;6.978;2023-09-07T11:18:20;100600.09;;;29.43;47.43
2339;BME280;1180;51.438;6.978;2023-09-07T11:20:50;100603.56;;;29.50;46.92
2339;BME280;1180;51.438;6.978;2023-09-07T11:23:20;100593.34;;;29.61;46.95
2339;BME280;1180;51.438;6.978;2023-09-07T11:25:49;100598.31;;;29.82;47.92
2339;BME280;1180;51.438;6.978;2023-09-07T11:28:17;100591.97;;;29.90;46.66
2339;BME280;1180;51.438;6.978;2023-09-07T11:30:53;100593.59;;;29.91;46.47
2339;BME280;1180;51.438;6.978;2023-09-07T11:33:21;100586.75;;;29.83;45.17
2339;BME280;1180;51.438;6.978;2023-09-07T11:35:46;100586.06;;;30.02;46.24
2339;BME280;1180;51.438;6.978;2023-09-07T11:38:13;100586.41;;;30.12;45.87
2339;BME280;1180;51.438;6.978;2023-09-07T11:40:39;100583.53;;;30.14;46.29
2339;BME280;1180;51.438;6.978;2023-09-07T11:43:04;100584.47;;;30.26;46.04
2339;BME280;1180;51.438;6.978;2023-09-07T11:45:30;100586.97;;;30.21;46.47
2339;BME280;1180;51.438;6.978;2023-09-07T11:47:57;100584.91;;;30.23;47.33
2339;BME280;1180;51.438;6.978;2023-09-07T11:50:23;100576.88;;;30.36;47.47
2339;BME280;1180;51.438;6.978;2023-09-07T11:52:50;100580.25;;;30.44;47.03
2339;BME280;1180;51.438;6.978;2023-09-07T11:55:15;100576.16;;;30.48;45.83
2339;BME280;1180;51.438;6.978;2023-09-07T11:57:40;100580.25;;;30.44;46.55
2339;BME280;1180;51.438;6.978;2023-09-07T12:00:10;100576.69;;;30.63;46.02
2339;BME280;1180;51.438;6.978;2023-09-07T12:02:36;100577.59;;;30.76;45.86
2339;BME280;1180;51.438;6.978;2023-09-07T12:05:01;100567.75;;;30.83;46.41
2339;BME280;1180;51.438;6.978;2023-09-07T12:07:29;100575.72;;;30.83;46.12
2339;BME280;1180;51.438;6.978;2023-09-07T12:09:55;100576.06;;;30.87;47.28
2339;BME280;1180;51.438;6.978;2023-09-07T12:12:22;100576.25;;;30.66;44.66
2339;BME280;1180;51.438;6.978;2023-09-07T12:14:47;100569.72;;;30.69;44.78
2339;BME280;1180;51.438;6.978;2023-09-07T12:17:13;100576.34;;;30.78;43.63
2339;BME280;1180;51.438;6.978;2023-09-07T12:19:38;100568.72;;;30.89;44.60
2339;BME280;1180;51.438;6.978;2023-09-07T12:22:06;100565.91;;;30.83;44.04
2339;BME280;1180;51.438;6.978;2023-09-07T12:24:33;100566.28;;;30.87;44.57
2339;BME280;1180;51.438;6.978;2023-09-07T12:26:58;100561.78;;;30.88;44.92
2339;BME280;1180;51.438;6.978;2023-09-07T12:29:25;100559.88;;;30.95;43.36
2339;BME280;1180;51.438;6.978;2023-09-07T12:31:50;100551.56;;;31.10;43.87
2339;BME280;1180;51.438;6.978;2023-09-07T12:34:15;100554.47;;;31.08;43.90
2339;BME280;1180;51.438;6.978;2023-09-07T12:36:41;100538.56;;;31.08;44.54
2339;BME280;1180;51.438;6.978;2023-09-07T12:39:06;100553.03;;;30.87;43.92
2339;BME280;1180;51.438;6.978;2023-09-07T12:41:32;100548.19;;;30.84;44.76
2339;BME280;1180;51.438;6.978;2023-09-07T12:43:57;100551.81;;;30.64;45.73
2339;BME280;1180;51.438;6.978;2023-09-07T12:46:22;100543.47;;;30.86;45.20
2339;BME280;1180;51.438;6.978;2023-09-07T12:48:48;100547.22;;;30.97;44.87
2339;BME280;1180;51.438;6.978;2023-09-07T12:51:13;100551.44;;;30.86;45.56
2339;BME280;1180;51.438;6.978;2023-09-07T12:53:38;100546.28;;;30.91;45.79
2339;BME280;1180;51.438;6.978;2023-09-07T12:56:05;100543.47;;;31.05;45.53
2339;BME280;1180;51.438;6.978;2023-09-07T12:58:31;100534.28;;;31.07;44.96
2339;BME280;1180;51.438;6.978;2023-09-07T13:00:56;100531.28;;;31.22;45.01
2339;BME280;1180;51.438;6.978;2023-09-07T13:03:21;100529.88;;;31.20;45.31
2339;BME280;1180;51.438;6.978;2023-09-07T13:05:47;100518.06;;;31.16;45.11
2339;BME280;1180;51.438;6.978;2023-09-07T13:08:13;100530.47;;;31.40;45.72